Strawberry Plains, Tennessee
Current Conditions -  °F | °C
As of 1:55 AM on Monday 24 Nov 2014 (Local Time) from KGKT Reporting Station
Overcast Overcast  
Wind Chill: 64°   Ceiling: 5000
Heat Index: 64°   Visibility: 10mi
Dew Point: 50°   Wind: 8mph
Humidity: 59%   Direction: 220°SW
Pressure: 29.61"   Gusts: NA
Location:  36.06°N, 83.69°W
Report Text: KGKT 240655Z AUTO 22007KT 10SM OVC050 18/10 A2961 RMK
Loading
Personal Weather Stations






























Interactive Weather Map New forecast layout! Learn more

10-Day Weather Forecast

Advertisements
Track Severe Weather on mobile